Terminal Aerodrome Forecast
Issued by NWS Jackson, MS

Home | Current Version | Previous Version | Text Only | Print | Product List | Glossary On
Versions: 1 2 3 4 5 6 7 8 9 10 11 12 13 14 15 16 17 18 19
000
FTUS44 KJAN 291129
TAFHBG
TAF
KHBG 291129Z 2912/3012 17003KT 1SM BR VV004
     FM291300 17004KT 5SM BR BKN008
     FM291430 17005KT P6SM BKN015
     FM291600 16006KT P6SM VCSH SCT030
     FM291800 17006KT P6SM VCTS BKN040CB
     FM300000 17003KT P6SM BKN110
     FM300900 17003KT P6SM OVC003=

USA.gov is the U.S. government's official web portal to all federal, state and local government web resources and services.